createdAt,value
2023-05-09T00:00:03.840Z,13.3580
2023-05-09T00:01:06.902Z,13.3464
2023-05-09T00:02:09.882Z,13.3317
2023-05-09T00:03:12.982Z,13.3113
2023-05-09T00:04:16.004Z,13.2852
2023-05-09T00:05:19.007Z,13.2621
2023-05-09T00:06:21.972Z,13.2395
2023-05-09T00:07:24.961Z,13.2177
2023-05-09T00:08:27.967Z,13.1994
2023-05-09T00:09:30.971Z,13.1818
2023-05-09T00:10:33.985Z,13.1705
2023-05-09T00:11:37.052Z,13.1614
2023-05-09T00:12:40.088Z,13.1543
2023-05-09T00:13:43.061Z,13.1416
2023-05-09T00:14:46.059Z,13.1266
2023-05-09T00:15:49.030Z,13.1002
2023-05-09T00:16:52.125Z,13.0718
2023-05-09T00:17:55.119Z,13.0516
2023-05-09T00:18:58.130Z,13.0324
2023-05-09T00:20:01.112Z,13.0121
2023-05-09T00:21:04.108Z,12.9951
2023-05-09T00:22:07.163Z,12.9752
2023-05-09T00:23:10.129Z,12.9553
2023-05-09T00:24:13.122Z,12.9319
2023-05-09T00:25:16.332Z,12.9098
2023-05-09T00:26:19.463Z,12.8857
2023-05-09T00:27:22.472Z,12.8661
2023-05-09T00:28:25.450Z,12.8471
2023-05-09T00:29:28.437Z,12.8271
2023-05-09T00:30:31.407Z,12.8078
2023-05-09T00:31:34.421Z,12.7806
2023-05-09T00:32:37.400Z,12.7488
2023-05-09T00:33:40.424Z,12.7143
2023-05-09T00:34:43.443Z,12.6738
2023-05-09T00:35:46.369Z,12.6420
2023-05-09T00:36:49.383Z,12.6274
2023-05-09T00:37:52.340Z,12.6125
2023-05-09T00:38:55.294Z,12.5967
2023-05-09T00:39:58.274Z,12.5855
2023-05-09T00:41:01.253Z,12.5750
2023-05-09T00:42:04.226Z,12.5647
2023-05-09T00:43:07.219Z,12.5463
2023-05-09T00:44:10.190Z,12.5211
2023-05-09T00:45:13.316Z,12.4910
2023-05-09T00:46:16.532Z,12.4695
2023-05-09T00:47:19.601Z,12.4477
2023-05-09T00:48:22.583Z,12.4282
2023-05-09T00:49:25.575Z,12.4063
2023-05-09T00:50:28.583Z,12.3935
2023-05-09T00:51:31.525Z,12.3901
2023-05-09T00:52:34.558Z,12.3945
2023-05-09T00:53:37.537Z,12.3985
2023-05-09T00:54:40.550Z,12.3991
2023-05-09T00:55:43.617Z,12.3925
2023-05-09T00:56:46.564Z,12.3828
2023-05-09T00:57:49.531Z,12.3803
2023-05-09T00:58:52.521Z,12.3699
2023-05-09T00:59:55.516Z,12.3556
2023-05-09T01:00:58.837Z,12.3460
2023-05-09T01:02:01.837Z,12.3326
2023-05-09T01:03:04.920Z,12.3266
2023-05-09T01:04:07.938Z,12.3199
2023-05-09T01:05:10.965Z,12.3082
2023-05-09T01:06:13.965Z,12.3004
2023-05-09T01:07:16.942Z,12.2968
2023-05-09T01:08:19.894Z,12.2947
2023-05-09T01:09:23.138Z,12.3011
2023-05-09T01:10:26.127Z,12.3083
2023-05-09T01:11:29.134Z,12.3144
2023-05-09T01:12:32.114Z,12.3246
2023-05-09T01:13:35.138Z,12.3331
2023-05-09T01:14:38.142Z,12.3378
2023-05-09T01:15:41.200Z,12.3443
2023-05-09T01:16:44.151Z,12.3509
2023-05-09T01:17:47.161Z,12.3545
2023-05-09T01:18:50.109Z,12.3594
2023-05-09T01:19:53.079Z,12.3621
2023-05-09T01:20:56.064Z,12.3636
2023-05-09T01:21:59.088Z,12.3678
2023-05-09T01:23:02.017Z,12.3767
2023-05-09T01:24:05.005Z,12.3865
2023-05-09T01:25:08.227Z,12.3916
2023-05-09T01:26:11.203Z,12.3918
2023-05-09T01:27:14.229Z,12.3850
2023-05-09T01:28:17.189Z,12.3625
2023-05-09T01:29:20.427Z,12.3296
2023-05-09T01:30:23.449Z,12.2947
2023-05-09T01:31:26.506Z,12.2636
2023-05-09T01:32:29.514Z,12.2366
2023-05-09T01:33:32.459Z,12.2105
2023-05-09T01:34:35.461Z,12.1895
2023-05-09T01:35:38.428Z,12.1750
2023-05-09T01:36:41.388Z,12.1649
2023-05-09T01:37:44.405Z,12.1511
2023-05-09T01:38:47.341Z,12.1250
2023-05-09T01:39:50.348Z,12.0864
2023-05-09T01:40:53.362Z,12.0510
2023-05-09T01:41:56.899Z,12.0274
2023-05-09T01:42:59.889Z,11.9914
2023-05-09T01:44:02.910Z,11.9562
2023-05-09T01:45:06.220Z,11.9297
2023-05-09T01:46:09.218Z,11.9148
2023-05-09T01:47:12.415Z,11.8969
2023-05-09T01:48:15.416Z,11.8754
2023-05-09T01:49:19.167Z,11.8481
2023-05-09T01:50:22.141Z,11.8234
2023-05-09T01:51:25.109Z,11.8010
2023-05-09T01:52:28.098Z,11.7784
2023-05-09T01:53:31.120Z,11.7604
2023-05-09T01:54:34.073Z,11.7473
2023-05-09T01:55:37.061Z,11.7368
2023-05-09T01:56:40.043Z,11.7217
2023-05-09T01:57:43.052Z,11.7028
2023-05-09T01:58:46.005Z,11.6796
2023-05-09T01:59:49.230Z,11.6586
2023-05-09T02:00:52.249Z,11.6302
2023-05-09T02:01:55.886Z,11.5991
2023-05-09T02:02:58.920Z,11.5642
2023-05-09T02:04:01.919Z,11.5266
2023-05-09T02:05:04.924Z,11.4927
2023-05-09T02:06:07.648Z,11.4586
2023-05-09T02:07:10.845Z,11.4238
2023-05-09T02:08:13.826Z,11.3778
2023-05-09T02:09:16.850Z,11.3303
2023-05-09T02:11:20.065Z,11.3073
2023-05-09T02:11:20.065Z,11.3136
2023-05-09T02:12:23.048Z,11.3336
2023-05-09T02:13:26.078Z,11.3594
2023-05-09T02:14:29.124Z,11.3777
2023-05-09T02:15:32.113Z,11.3936
2023-05-09T02:16:35.156Z,11.4119
2023-05-09T02:17:38.159Z,11.4296
2023-05-09T02:18:41.100Z,11.4440
2023-05-09T02:19:42.415Z,11.4583
2023-05-09T02:20:45.483Z,11.4782
2023-05-09T02:21:48.424Z,11.4978
2023-05-09T02:22:51.662Z,11.5086
2023-05-09T02:23:54.638Z,11.5136
2023-05-09T02:24:57.983Z,11.5200
2023-05-09T02:26:00.931Z,11.5344
2023-05-09T02:27:04.292Z,11.5512
2023-05-09T02:28:07.297Z,11.5666
2023-05-09T02:29:10.300Z,11.5816
2023-05-09T02:30:13.496Z,11.5977
2023-05-09T02:31:16.508Z,11.6152
2023-05-09T02:32:19.752Z,11.6376
2023-05-09T02:33:22.724Z,11.6670
2023-05-09T02:34:25.693Z,11.6996
2023-05-09T02:35:28.694Z,11.7359
2023-05-09T02:36:31.684Z,11.7720
2023-05-09T02:37:34.938Z,11.8178
2023-05-09T02:38:37.925Z,11.8593
2023-05-09T02:39:41.028Z,11.8963
2023-05-09T02:40:44.061Z,11.9268
2023-05-09T02:41:47.013Z,11.9507
2023-05-09T02:42:49.997Z,11.9709
2023-05-09T02:43:53.023Z,11.9881
2023-05-09T02:44:55.940Z,12.0000
2023-05-09T02:45:58.992Z,12.0052
2023-05-09T02:47:01.919Z,12.0070
2023-05-09T02:48:07.640Z,12.0051
2023-05-09T02:49:07.874Z,11.9983
2023-05-09T02:50:11.201Z,11.9928
2023-05-09T02:51:14.206Z,11.9888
2023-05-09T02:52:17.193Z,11.9863
2023-05-09T02:53:20.156Z,11.9874
2023-05-09T02:54:23.135Z,11.9900
2023-05-09T02:55:26.152Z,11.9932
2023-05-09T02:56:29.168Z,11.9982
2023-05-09T02:57:32.124Z,12.0076
2023-05-09T02:58:35.102Z,12.0188
2023-05-09T02:59:38.061Z,12.0301
2023-05-09T03:00:41.067Z,12.0436
2023-05-09T03:01:44.107Z,12.0585
2023-05-09T03:02:47.164Z,12.0779
2023-05-09T03:03:50.180Z,12.1014
2023-05-09T03:04:53.127Z,12.1282
2023-05-09T03:05:56.105Z,12.1515
2023-05-09T03:06:59.112Z,12.1701
2023-05-09T03:08:02.097Z,12.1788
2023-05-09T03:09:05.111Z,12.1817
2023-05-09T03:10:08.075Z,12.1826
2023-05-09T03:11:11.069Z,12.1860
2023-05-09T03:12:14.094Z,12.1932
2023-05-09T03:13:17.104Z,12.1991
2023-05-09T03:14:20.082Z,12.2043
2023-05-09T03:15:23.082Z,12.2087
2023-05-09T03:16:26.055Z,12.2133
2023-05-09T03:17:26.635Z,12.2177
2023-05-09T03:18:29.613Z,12.2231
2023-05-09T03:19:32.617Z,12.2314
2023-05-09T03:20:35.958Z,12.2422
2023-05-09T03:21:38.934Z,12.2576
2023-05-09T03:22:41.915Z,12.2766
2023-05-09T03:23:44.942Z,12.3019
2023-05-09T03:24:48.002Z,12.3256
2023-05-09T03:25:51.318Z,12.3525
2023-05-09T03:26:54.315Z,12.3792
2023-05-09T03:27:57.375Z,12.4024
2023-05-09T03:29:00.318Z,12.4256
2023-05-09T03:30:03.341Z,12.4467
2023-05-09T03:31:06.462Z,12.4708
2023-05-09T03:32:09.481Z,12.4896
2023-05-09T03:33:13.004Z,12.5082
2023-05-09T03:34:16.006Z,12.5269
2023-05-09T03:35:19.000Z,12.5448
2023-05-09T03:36:21.974Z,12.5632
2023-05-09T03:37:26.901Z,12.5784
2023-05-09T03:38:26.778Z,12.5930
2023-05-09T03:39:29.770Z,12.6092
2023-05-09T03:40:32.986Z,12.6254
2023-05-09T03:41:35.983Z,12.6405
2023-05-09T03:42:39.213Z,12.6556
2023-05-09T03:43:42.274Z,12.6723
2023-05-09T03:44:45.245Z,12.6862
2023-05-09T03:45:48.292Z,12.6953
2023-05-09T03:46:51.357Z,12.7039
2023-05-09T03:47:54.087Z,12.7130
2023-05-09T03:48:57.094Z,12.7226
2023-05-09T03:50:00.114Z,12.7317
2023-05-09T03:51:03.112Z,12.7433
2023-05-09T03:52:06.154Z,12.7529
2023-05-09T03:53:09.175Z,12.7631
2023-05-09T03:54:12.191Z,12.7735
2023-05-09T03:55:15.348Z,12.7863
2023-05-09T03:56:18.759Z,12.7983
2023-05-09T03:57:21.778Z,12.8086
2023-05-09T03:58:24.794Z,12.8210
2023-05-09T03:59:27.845Z,12.8358
2023-05-09T04:00:30.804Z,12.8491
2023-05-09T04:01:33.827Z,12.8636
2023-05-09T04:02:36.915Z,12.8751
2023-05-09T04:03:40.169Z,12.8847
2023-05-09T04:04:43.170Z,12.8933
2023-05-09T04:05:46.181Z,12.9020
2023-05-09T04:06:49.194Z,12.9102
2023-05-09T04:07:52.206Z,12.9206
2023-05-09T04:08:55.205Z,12.9325
2023-05-09T04:09:58.214Z,12.9470
2023-05-09T04:11:01.474Z,12.9618
2023-05-09T04:12:04.499Z,12.9751
2023-05-09T04:13:07.592Z,12.9897
2023-05-09T04:14:10.567Z,13.0052
2023-05-09T04:15:13.954Z,13.0207
2023-05-09T04:16:17.066Z,13.0347
2023-05-09T04:17:20.046Z,13.0475
2023-05-09T04:18:23.062Z,13.0605
2023-05-09T04:19:26.114Z,13.0753
2023-05-09T04:20:29.122Z,13.0914
2023-05-09T04:21:32.152Z,13.1118
2023-05-09T04:22:35.174Z,13.1310
2023-05-09T04:23:36.161Z,13.1487
2023-05-09T04:24:39.160Z,13.1668
2023-05-09T04:25:42.420Z,13.1853
2023-05-09T04:26:45.458Z,13.2032
2023-05-09T04:27:48.466Z,13.2206
2023-05-09T04:28:51.499Z,13.2381
2023-05-09T04:29:54.494Z,13.2547
2023-05-09T04:30:57.740Z,13.2733
2023-05-09T04:32:00.845Z,13.2917
2023-05-09T04:33:03.870Z,13.3165
2023-05-09T04:34:06.886Z,13.3401
2023-05-09T04:35:09.888Z,13.3620
2023-05-09T04:36:12.930Z,13.3860
2023-05-09T04:37:15.951Z,13.4111
2023-05-09T04:38:18.976Z,13.4405
2023-05-09T04:39:21.963Z,13.4673
2023-05-09T04:40:26.857Z,13.4957
2023-05-09T04:41:26.505Z,13.5197
2023-05-09T04:42:29.540Z,13.5428
2023-05-09T04:43:32.607Z,13.5641
2023-05-09T04:44:35.606Z,13.5879
2023-05-09T04:45:36.748Z,13.6157
2023-05-09T04:46:39.855Z,13.6450
2023-05-09T04:47:42.874Z,13.6779
2023-05-09T04:48:45.879Z,13.7124
2023-05-09T04:49:48.884Z,13.7497
2023-05-09T04:50:51.955Z,13.7890
2023-05-09T04:51:54.982Z,13.8237
2023-05-09T04:52:58.035Z,13.8579
2023-05-09T04:54:01.092Z,13.8891
2023-05-09T04:55:04.106Z,13.9200
2023-05-09T04:56:07.150Z,13.9497
2023-05-09T04:57:17.244Z,13.9792
2023-05-09T04:58:11.701Z,14.0035
2023-05-09T04:59:14.734Z,14.0253
2023-05-09T05:00:17.760Z,14.0479
2023-05-09T05:01:20.781Z,14.0774
2023-05-09T05:02:23.825Z,14.1041
2023-05-09T05:03:26.871Z,14.1256
2023-05-09T05:04:29.893Z,14.1448
2023-05-09T05:06:35.988Z,14.1765
2023-05-09T05:07:39.028Z,14.1979
2023-05-09T05:08:42.066Z,14.2216
2023-05-09T05:09:45.079Z,14.2475
2023-05-09T05:10:48.119Z,14.2724
2023-05-09T05:12:00.829Z,14.3003
2023-05-09T05:12:52.726Z,14.3282
2023-05-09T05:13:55.749Z,14.3546
2023-05-09T05:14:58.796Z,14.3815
2023-05-09T05:16:01.849Z,14.4124
2023-05-09T05:17:04.859Z,14.4375
2023-05-09T05:18:08.029Z,14.4584
2023-05-09T05:19:11.021Z,14.4812
2023-05-09T05:20:14.027Z,14.5080
2023-05-09T05:21:17.158Z,14.5329
2023-05-09T05:22:20.118Z,14.5583
2023-05-09T05:23:23.134Z,14.5867
2023-05-09T05:24:26.141Z,14.6206
2023-05-09T05:25:29.163Z,14.6503
2023-05-09T05:26:32.405Z,14.6792
2023-05-09T05:27:35.450Z,14.7130
2023-05-09T05:28:38.477Z,14.7515
2023-05-09T05:29:41.491Z,14.7883
2023-05-09T05:30:44.512Z,14.8225
2023-05-09T05:31:47.599Z,14.8565
2023-05-09T05:33:51.137Z,14.8904
2023-05-09T05:33:51.137Z,14.9275
2023-05-09T05:34:54.080Z,14.9552
2023-05-09T05:35:57.122Z,14.9837
2023-05-09T05:37:00.139Z,15.0113
2023-05-09T05:38:03.186Z,15.0374
2023-05-09T05:39:06.207Z,15.0661
2023-05-09T05:40:09.208Z,15.0901
2023-05-09T05:41:12.257Z,15.1111
2023-05-09T05:42:15.278Z,15.1259
2023-05-09T05:43:18.301Z,15.1327
2023-05-09T05:44:21.300Z,15.1360
2023-05-09T05:45:24.322Z,15.1434
2023-05-09T05:46:27.804Z,15.1568
2023-05-09T05:47:30.848Z,15.1737
2023-05-09T05:48:34.459Z,15.1906
2023-05-09T05:49:37.503Z,15.2058
2023-05-09T05:50:48.128Z,15.2220
2023-05-09T05:51:43.792Z,15.2381
2023-05-09T05:52:46.822Z,15.2511
2023-05-09T05:53:50.099Z,15.2651
2023-05-09T05:54:53.162Z,15.2703
2023-05-09T05:55:56.402Z,15.2623
2023-05-09T05:56:59.451Z,15.2543
2023-05-09T05:58:02.433Z,15.2551
2023-05-09T05:59:05.444Z,15.2679
2023-05-09T06:00:08.628Z,15.2893
2023-05-09T06:01:12.469Z,15.3177
2023-05-09T06:02:15.615Z,15.3535
2023-05-09T06:03:18.754Z,15.3987
2023-05-09T06:04:21.980Z,15.4443
2023-05-09T06:05:25.164Z,15.4961
2023-05-09T06:06:28.430Z,15.5526
2023-05-09T06:07:31.417Z,15.6153
2023-05-09T06:08:34.539Z,15.6773
2023-05-09T06:09:37.574Z,15.7475
2023-05-09T06:10:40.639Z,15.8161
2023-05-09T06:11:43.713Z,15.8817
2023-05-09T06:12:46.770Z,15.9476
2023-05-09T06:13:49.981Z,15.9968
2023-05-09T06:14:53.048Z,16.0427
2023-05-09T06:15:57.741Z,16.0782
2023-05-09T06:16:57.661Z,16.1189
2023-05-09T06:18:00.710Z,16.1512
2023-05-09T06:19:03.756Z,16.1762
2023-05-09T06:20:06.758Z,16.1986
2023-05-09T06:21:09.890Z,16.2176
2023-05-09T06:22:12.879Z,16.2156
2023-05-09T06:23:15.904Z,16.1996
2023-05-09T06:24:31.867Z,16.1833
2023-05-09T06:25:20.501Z,16.1745
2023-05-09T06:26:23.518Z,16.1756
2023-05-09T06:27:26.559Z,16.1713
2023-05-09T06:28:29.551Z,16.1789
2023-05-09T06:29:31.901Z,16.1956
2023-05-09T06:30:34.913Z,16.2074
2023-05-09T06:31:37.944Z,16.2245
2023-05-09T06:32:41.045Z,16.2445
2023-05-09T06:33:44.041Z,16.2748
2023-05-09T06:34:47.055Z,16.3148
2023-05-09T06:35:50.070Z,16.3730
2023-05-09T06:36:53.153Z,16.4437
2023-05-09T06:37:56.152Z,16.5218
2023-05-09T06:38:59.213Z,16.6397
2023-05-09T06:40:02.246Z,16.7612
2023-05-09T06:41:05.455Z,16.8631
2023-05-09T06:42:08.457Z,16.9559
2023-05-09T06:43:11.526Z,17.0362
2023-05-09T06:44:14.573Z,17.1023
2023-05-09T06:45:17.853Z,17.1513
2023-05-09T06:46:21.183Z,17.2052
2023-05-09T06:47:24.379Z,17.2722
2023-05-09T06:48:27.368Z,17.3451
2023-05-09T06:49:30.392Z,17.4297
2023-05-09T06:50:33.388Z,17.4929
2023-05-09T06:51:36.267Z,17.5599
2023-05-09T06:52:39.327Z,17.6251
2023-05-09T06:53:42.325Z,17.6904
2023-05-09T06:54:45.360Z,17.7498
2023-05-09T06:55:48.390Z,17.8192
2023-05-09T06:56:51.416Z,17.8972
2023-05-09T06:57:54.443Z,17.9763
2023-05-09T06:58:57.457Z,18.0781
2023-05-09T07:00:00.480Z,18.1847
2023-05-09T07:01:03.493Z,18.3083
2023-05-09T07:02:06.595Z,18.4264
2023-05-09T07:03:09.625Z,18.5488
2023-05-09T07:04:12.628Z,18.6620
2023-05-09T07:05:15.849Z,18.7851
2023-05-09T07:06:19.097Z,18.9344
2023-05-09T07:07:22.141Z,19.0877
2023-05-09T07:08:25.181Z,19.2594
2023-05-09T07:09:28.148Z,19.4453
2023-05-09T07:10:31.180Z,19.6529
2023-05-09T07:11:34.187Z,19.9208
2023-05-09T07:13:39.554Z,20.2464
2023-05-09T07:13:39.554Z,20.5437
2023-05-09T07:14:42.572Z,20.7811
2023-05-09T07:15:45.722Z,20.8901
2023-05-09T07:16:48.775Z,20.9775
2023-05-09T07:17:51.786Z,21.0768
2023-05-09T07:18:54.769Z,21.1687
2023-05-09T07:19:57.810Z,21.2456
2023-05-09T07:21:00.827Z,21.3204
2023-05-09T07:22:04.141Z,21.3131
2023-05-09T07:23:07.153Z,21.3029
2023-05-09T07:24:10.256Z,21.3221
2023-05-09T07:25:13.510Z,21.3704
2023-05-09T07:26:16.617Z,21.5042
2023-05-09T07:27:19.657Z,21.6723
2023-05-09T07:28:22.691Z,21.8320
2023-05-09T07:29:25.766Z,21.9829
2023-05-09T07:30:28.750Z,22.1148
2023-05-09T07:31:31.771Z,22.2734
2023-05-09T07:32:34.772Z,22.4104
2023-05-09T07:33:37.789Z,22.5026
2023-05-09T07:34:40.786Z,22.6097
2023-05-09T07:35:43.985Z,22.8061
2023-05-09T07:36:47.000Z,23.0774
2023-05-09T07:37:50.200Z,23.3068
2023-05-09T07:38:53.278Z,23.3976
2023-05-09T07:39:56.058Z,23.4354
2023-05-09T07:40:59.242Z,23.4482
2023-05-09T07:42:02.258Z,23.4610
2023-05-09T07:43:05.313Z,23.4770
2023-05-09T07:44:08.315Z,23.5028
2023-05-09T07:45:11.392Z,23.4975
2023-05-09T07:46:14.715Z,23.4740
2023-05-09T07:47:17.733Z,23.4667
2023-05-09T07:48:20.774Z,23.4636
2023-05-09T07:49:23.797Z,23.4572
2023-05-09T07:50:26.471Z,23.4651
2023-05-09T07:51:29.491Z,23.5002
2023-05-09T07:52:32.564Z,23.5330
2023-05-09T07:53:35.543Z,23.5644
2023-05-09T07:54:38.560Z,23.5925
2023-05-09T07:55:41.648Z,23.6112
2023-05-09T07:56:44.629Z,23.6214
2023-05-09T07:57:47.661Z,23.6519
2023-05-09T07:58:50.717Z,23.6807
2023-05-09T07:59:53.743Z,23.7065
2023-05-09T08:00:56.785Z,23.7340
2023-05-09T08:01:59.842Z,23.7712
2023-05-09T08:03:03.016Z,23.8226
2023-05-09T08:04:06.531Z,23.8773
2023-05-09T08:05:09.570Z,23.9351
2023-05-09T08:06:12.568Z,23.9857
2023-05-09T08:07:15.591Z,24.0561
2023-05-09T08:08:18.597Z,24.1433
2023-05-09T08:09:21.846Z,24.2401
2023-05-09T08:10:24.885Z,24.3386
2023-05-09T08:11:27.927Z,24.4309
2023-05-09T08:12:30.888Z,24.5302
2023-05-09T08:13:33.934Z,24.6216
2023-05-09T08:14:37.003Z,24.6976
2023-05-09T08:15:39.747Z,24.7608
2023-05-09T08:16:42.738Z,24.8207
2023-05-09T08:17:45.853Z,24.8250
2023-05-09T08:18:48.866Z,24.7564
2023-05-09T08:19:51.883Z,24.7150
2023-05-09T08:20:54.894Z,24.7044
2023-05-09T08:21:57.949Z,24.7104
2023-05-09T08:23:00.985Z,24.7295
2023-05-09T08:24:03.985Z,24.7456
2023-05-09T08:25:07.023Z,24.7452
2023-05-09T08:26:10.036Z,24.7113
2023-05-09T08:27:10.307Z,24.6531
2023-05-09T08:28:13.291Z,24.5885
2023-05-09T08:29:16.311Z,24.5116
2023-05-09T08:30:19.331Z,24.3886
2023-05-09T08:31:22.379Z,24.2476
2023-05-09T08:32:25.424Z,24.1011
2023-05-09T08:33:28.456Z,23.9703
2023-05-09T08:34:29.619Z,23.8790
2023-05-09T08:35:32.602Z,23.7641
2023-05-09T08:37:35.764Z,23.6697
2023-05-09T08:37:35.764Z,23.5670
2023-05-09T08:38:38.999Z,23.5031
2023-05-09T08:39:42.025Z,23.4142
2023-05-09T08:40:45.127Z,23.3374
2023-05-09T08:41:48.236Z,23.2727
2023-05-09T08:42:51.451Z,23.2319
2023-05-09T08:43:54.441Z,23.2133
2023-05-09T08:44:57.477Z,23.2208
2023-05-09T08:46:00.676Z,23.2539
2023-05-09T08:47:03.806Z,23.2951
2023-05-09T08:48:07.111Z,23.3511
2023-05-09T08:49:10.512Z,23.4182
2023-05-09T08:50:13.733Z,23.4783
2023-05-09T08:51:17.098Z,23.5380
2023-05-09T08:52:20.121Z,23.5773
2023-05-09T08:53:23.222Z,23.5834
2023-05-09T08:54:26.224Z,23.6050
2023-05-09T08:55:29.259Z,23.7139
2023-05-09T08:56:32.307Z,23.7356
2023-05-09T08:57:35.318Z,23.7017
2023-05-09T08:58:38.370Z,23.6254
2023-05-09T08:59:41.377Z,23.5307
2023-05-09T09:00:44.425Z,23.4374
2023-05-09T09:01:47.523Z,23.3495
2023-05-09T09:02:50.553Z,23.2736
2023-05-09T09:03:53.589Z,23.1743
2023-05-09T09:04:56.705Z,23.0701
2023-05-09T09:05:59.788Z,22.9686
2023-05-09T09:07:02.824Z,22.8795
2023-05-09T09:08:05.853Z,22.8020
2023-05-09T09:09:08.892Z,22.7538
2023-05-09T09:10:11.959Z,22.7367
2023-05-09T09:11:14.951Z,22.9361
2023-05-09T09:12:17.952Z,23.2801
2023-05-09T09:13:21.003Z,23.4328
2023-05-09T09:14:24.077Z,23.4927
2023-05-09T09:15:27.072Z,23.5201
2023-05-09T09:16:30.153Z,23.5392
2023-05-09T09:17:33.232Z,23.5781
2023-05-09T09:18:36.288Z,23.5790
2023-05-09T09:19:39.326Z,23.5408
2023-05-09T09:20:42.394Z,23.4810
2023-05-09T09:21:45.403Z,23.4393
2023-05-09T09:22:48.523Z,23.4444
2023-05-09T09:23:51.533Z,23.5030
2023-05-09T09:24:54.620Z,23.5783
2023-05-09T09:25:59.607Z,23.6839
2023-05-09T09:27:59.449Z,23.9774
2023-05-09T09:27:59.449Z,23.8228
2023-05-09T09:29:02.448Z,24.1094
2023-05-09T09:30:05.526Z,24.2808
2023-05-09T09:31:08.514Z,24.3999
2023-05-09T09:32:11.570Z,24.4442
2023-05-09T09:33:14.724Z,24.5214
2023-05-09T09:34:17.698Z,24.7192
2023-05-09T09:35:20.713Z,25.0197
2023-05-09T09:36:23.740Z,25.3483
2023-05-09T09:37:24.005Z,25.6275
2023-05-09T09:38:30.879Z,25.8321
2023-05-09T09:39:34.015Z,26.0222
2023-05-09T09:40:37.016Z,26.0983
2023-05-09T09:41:40.206Z,26.0277
2023-05-09T09:42:43.238Z,25.9279
2023-05-09T09:43:46.257Z,26.0036
2023-05-09T09:44:49.265Z,26.2917
2023-05-09T09:45:52.431Z,26.6791
2023-05-09T09:46:55.490Z,27.1099
2023-05-09T09:47:58.601Z,27.5519
2023-05-09T09:49:01.865Z,27.9962
2023-05-09T09:50:04.935Z,28.4072
2023-05-09T09:51:08.135Z,28.8063
2023-05-09T09:52:11.182Z,29.1992
2023-05-09T09:53:14.194Z,29.5574
2023-05-09T09:54:18.326Z,29.8655
2023-05-09T09:55:17.669Z,30.1546
2023-05-09T09:56:20.621Z,30.3544
2023-05-09T09:57:23.662Z,30.5109
2023-05-09T09:58:26.694Z,30.6559
2023-05-09T09:59:29.981Z,30.7289
2023-05-09T10:00:32.989Z,30.7899
2023-05-09T10:01:36.116Z,30.8346
2023-05-09T10:02:39.393Z,30.8866
2023-05-09T10:03:42.443Z,30.9797
2023-05-09T10:04:43.573Z,31.0701
2023-05-09T10:05:46.585Z,31.2420
2023-05-09T10:06:49.610Z,31.4389
2023-05-09T10:07:52.674Z,31.6116
2023-05-09T10:08:55.678Z,31.7688
2023-05-09T10:09:57.141Z,31.9339
2023-05-09T10:11:00.159Z,32.1206
2023-05-09T10:12:03.627Z,32.2619
2023-05-09T10:13:06.693Z,32.3219
2023-05-09T10:14:09.748Z,32.3501
2023-05-09T10:15:12.749Z,32.4111
2023-05-09T10:16:35.646Z,32.4778
2023-05-09T10:18:25.759Z,32.7127
2023-05-09T10:18:25.759Z,32.5825
2023-05-09T10:19:28.838Z,32.7715
2023-05-09T10:20:31.906Z,32.8281
2023-05-09T10:21:36.160Z,32.8525
2023-05-09T10:22:36.343Z,32.8873
2023-05-09T10:23:39.065Z,32.9198
2023-05-09T10:24:42.116Z,32.9508
2023-05-09T10:25:45.166Z,32.9868
2023-05-09T10:26:48.519Z,33.0308
2023-05-09T10:27:51.603Z,33.0880
2023-05-09T10:28:54.632Z,33.1102
2023-05-09T10:29:57.933Z,33.1511
2023-05-09T10:31:01.019Z,33.1685
2023-05-09T10:32:04.056Z,33.1317
2023-05-09T10:33:07.159Z,33.0946
2023-05-09T10:34:10.421Z,33.0579
2023-05-09T10:35:13.657Z,32.9681
2023-05-09T10:36:16.869Z,32.8028
2023-05-09T10:37:20.350Z,32.5474
2023-05-09T10:38:23.414Z,32.3419
2023-05-09T10:39:26.728Z,32.1660
2023-05-09T10:40:29.782Z,32.0206
2023-05-09T10:41:32.832Z,31.9060
2023-05-09T10:42:36.129Z,31.8667
2023-05-09T10:43:38.913Z,31.8235
2023-05-09T10:44:41.959Z,31.7517
2023-05-09T10:45:45.031Z,31.7261
2023-05-09T10:46:48.161Z,31.6868
2023-05-09T10:47:51.336Z,31.6456
2023-05-09T10:48:54.439Z,31.6165
2023-05-09T10:50:02.618Z,31.6158
2023-05-09T10:51:05.613Z,31.6354
2023-05-09T10:52:08.695Z,31.6850
2023-05-09T10:53:11.765Z,31.7546
2023-05-09T10:54:14.820Z,31.8012
2023-05-09T10:55:17.908Z,31.8834
2023-05-09T10:56:20.987Z,31.9996
2023-05-09T10:57:24.330Z,32.1336
2023-05-09T10:58:27.404Z,32.2572
2023-05-09T10:59:30.464Z,32.3482
2023-05-09T11:00:33.538Z,32.4098
2023-05-09T11:02:38.292Z,32.4865
2023-05-09T11:02:38.292Z,32.4996
2023-05-09T11:03:41.626Z,32.4733
2023-05-09T11:04:44.774Z,32.4581
2023-05-09T11:05:47.838Z,32.4082
2023-05-09T11:06:50.918Z,32.3368
2023-05-09T11:07:54.108Z,32.2675
2023-05-09T11:08:57.192Z,32.1836
2023-05-09T11:10:00.282Z,32.0644
2023-05-09T11:11:03.368Z,31.9554
2023-05-09T11:13:09.179Z,31.9023
2023-05-09T11:13:09.179Z,31.9095
2023-05-09T11:14:12.221Z,31.8860
2023-05-09T11:15:15.446Z,31.7990
2023-05-09T11:16:18.667Z,31.7481
2023-05-09T11:17:22.072Z,31.7377
2023-05-09T11:18:25.242Z,31.7382
2023-05-09T11:19:28.290Z,31.7480
2023-05-09T11:20:31.394Z,31.7766
2023-05-09T11:21:34.654Z,31.7875
2023-05-09T11:22:37.726Z,31.7759
2023-05-09T11:23:40.805Z,31.7911
2023-05-09T11:24:43.864Z,31.8073
2023-05-09T11:25:46.959Z,31.8135
2023-05-09T11:26:49.984Z,31.8086
2023-05-09T11:27:53.100Z,31.7716
2023-05-09T11:28:56.317Z,31.7122
2023-05-09T11:29:59.370Z,31.6778
2023-05-09T11:31:02.448Z,31.6597
2023-05-09T11:32:05.507Z,31.6423
2023-05-09T11:33:09.144Z,31.5860
2023-05-09T11:34:12.405Z,31.4863
2023-05-09T11:35:15.984Z,31.3888
2023-05-09T11:36:15.625Z,31.3173
2023-05-09T11:37:18.701Z,31.2623
2023-05-09T11:38:29.278Z,31.1878
2023-05-09T11:39:32.368Z,31.1422
2023-05-09T11:40:35.461Z,31.1559
2023-05-09T11:41:38.578Z,31.1865
2023-05-09T11:42:41.594Z,31.2336
2023-05-09T11:43:44.676Z,31.2847
2023-05-09T11:44:47.950Z,31.3179
2023-05-09T11:45:51.062Z,31.3774
2023-05-09T11:46:54.167Z,31.4317
2023-05-09T11:47:57.298Z,31.4500
2023-05-09T11:49:07.784Z,31.5117
2023-05-09T11:50:04.069Z,31.6224
2023-05-09T11:51:07.092Z,31.6843
2023-05-09T11:52:10.237Z,31.6912
2023-05-09T11:53:13.420Z,31.7010
2023-05-09T11:54:16.451Z,31.7180
2023-05-09T11:55:19.748Z,31.7688
2023-05-09T11:56:22.846Z,31.8358
2023-05-09T11:57:25.890Z,31.9097
2023-05-09T11:58:28.999Z,32.0131
2023-05-09T11:59:32.083Z,32.1340
2023-05-09T12:00:35.146Z,32.2474
2023-05-09T12:01:38.216Z,32.3514
2023-05-09T12:02:41.396Z,32.4682
2023-05-09T12:03:44.534Z,32.6072
2023-05-09T12:04:47.648Z,32.7146
2023-05-09T12:05:50.938Z,32.7636
2023-05-09T12:06:54.021Z,32.7680
2023-05-09T12:07:57.090Z,32.7777
2023-05-09T12:09:00.181Z,32.7726
2023-05-09T12:10:03.213Z,32.7449
2023-05-09T12:11:06.278Z,32.7455
2023-05-09T12:12:07.502Z,32.7705
2023-05-09T12:13:10.628Z,32.7959
2023-05-09T12:14:13.752Z,32.8313
2023-05-09T12:15:17.112Z,32.8730
2023-05-09T12:16:17.032Z,32.9195
2023-05-09T12:17:19.854Z,32.9771
2023-05-09T12:18:23.273Z,33.0476
2023-05-09T12:19:26.344Z,33.1388
2023-05-09T12:20:29.388Z,33.1933
2023-05-09T12:21:32.446Z,33.1904
2023-05-09T12:22:35.638Z,33.1619
2023-05-09T12:23:38.699Z,33.1685
2023-05-09T12:24:41.805Z,33.1917
2023-05-09T12:25:44.953Z,33.1802
2023-05-09T12:26:48.000Z,33.1235
2023-05-09T12:27:51.089Z,33.0725
2023-05-09T12:28:54.140Z,32.9956
2023-05-09T12:29:57.202Z,32.9178
2023-05-09T12:31:00.279Z,32.8635
2023-05-09T12:33:03.997Z,32.8212
2023-05-09T12:33:03.997Z,32.7533
2023-05-09T12:34:07.049Z,32.7218
2023-05-09T12:35:10.127Z,32.6984
2023-05-09T12:36:13.207Z,32.6986
2023-05-09T12:37:14.392Z,32.6842
2023-05-09T12:38:17.665Z,32.6545
2023-05-09T12:39:20.704Z,32.6451
2023-05-09T12:40:23.811Z,32.6080
2023-05-09T12:41:36.907Z,32.5430
2023-05-09T12:42:28.424Z,32.4662